createdAt,value
2023-11-30T00:00:41.023Z,4.57
2023-11-30T00:05:43.222Z,3.67
2023-11-30T00:10:45.010Z,4.27
2023-11-30T00:15:48.053Z,4.30
2023-11-30T00:20:50.310Z,3.45
2023-11-30T00:25:52.772Z,3.53
2023-11-30T00:30:55.003Z,3.70
2023-11-30T00:35:57.069Z,4.20
2023-11-30T00:40:58.920Z,3.90
2023-11-30T00:46:07.146Z,4.07
2023-11-30T00:51:13.057Z,3.85
2023-11-30T01:01:16.849Z,4.00
2023-11-30T01:06:19.001Z,4.20
2023-11-30T01:11:21.341Z,4.03
2023-11-30T01:16:23.186Z,4.50
2023-11-30T01:21:25.063Z,4.70
2023-11-30T01:26:26.776Z,4.50
2023-11-30T01:31:28.879Z,5.18
2023-11-30T01:36:30.718Z,5.20
2023-11-30T01:41:32.471Z,5.57
2023-11-30T01:46:37.568Z,5.75
2023-11-30T01:51:39.590Z,5.43
2023-11-30T01:56:43.216Z,6.00
2023-11-30T02:01:45.232Z,5.40
2023-11-30T02:06:47.598Z,5.70
2023-11-30T02:11:49.495Z,5.22
2023-11-30T02:16:51.345Z,5.53
2023-11-30T02:21:53.331Z,5.78
2023-11-30T02:26:55.224Z,5.72
2023-11-30T02:31:57.158Z,5.27
2023-11-30T02:36:59.967Z,5.07
2023-11-30T02:47:03.637Z,5.30
2023-11-30T02:52:05.649Z,5.17
2023-11-30T02:57:07.886Z,5.18
2023-11-30T03:02:10.039Z,5.13
2023-11-30T03:07:12.113Z,5.15
2023-11-30T03:12:18.286Z,5.05
2023-11-30T03:17:20.818Z,5.28
2023-11-30T03:22:22.586Z,4.95
2023-11-30T03:27:24.647Z,6.67
2023-11-30T03:32:26.684Z,5.35
2023-11-30T03:37:28.894Z,5.30
2023-11-30T03:42:30.990Z,4.75
2023-11-30T03:47:32.789Z,5.20
2023-11-30T03:52:35.387Z,4.87
2023-11-30T03:57:37.444Z,5.22
2023-11-30T04:02:39.754Z,5.17
2023-11-30T04:07:41.544Z,4.75
2023-11-30T04:12:43.960Z,5.30
2023-11-30T04:17:45.584Z,5.00
2023-11-30T04:22:47.418Z,5.65
2023-11-30T04:27:49.211Z,5.20
2023-11-30T04:32:50.969Z,4.43
2023-11-30T04:37:53.106Z,4.57
2023-11-30T04:42:56.867Z,4.93
2023-11-30T04:47:59.092Z,4.95
2023-11-30T04:53:01.509Z,5.13
2023-11-30T04:58:03.218Z,5.05
2023-11-30T05:03:05.329Z,5.32
2023-11-30T05:08:07.194Z,5.45
2023-11-30T05:13:09.290Z,5.60
2023-11-30T05:18:11.216Z,5.17
2023-11-30T05:23:13.092Z,5.00
2023-11-30T05:28:14.871Z,4.80
2023-11-30T05:33:17.665Z,4.70
2023-11-30T05:38:20.458Z,6.72
2023-11-30T05:43:22.328Z,4.80
2023-11-30T05:48:24.165Z,4.93
2023-11-30T05:53:26.706Z,5.22
2023-11-30T05:58:29.126Z,5.85
2023-11-30T06:03:31.119Z,5.15
2023-11-30T06:08:32.932Z,5.82
2023-11-30T06:13:35.584Z,5.80
2023-11-30T06:18:38.232Z,5.53
2023-11-30T06:23:40.144Z,6.15
2023-11-30T06:28:42.249Z,6.00
2023-11-30T06:33:44.400Z,4.40
2023-11-30T06:38:46.604Z,5.15
2023-11-30T06:43:48.385Z,5.00
2023-11-30T06:48:53.317Z,4.97
2023-11-30T06:53:55.143Z,4.82
2023-11-30T06:58:57.403Z,4.85
2023-11-30T07:03:59.397Z,5.00
2023-11-30T07:09:01.725Z,5.10
2023-11-30T07:14:03.664Z,4.50
2023-11-30T07:19:05.384Z,5.15
2023-11-30T07:24:10.024Z,4.65
2023-11-30T07:29:13.526Z,4.80
2023-11-30T07:34:15.338Z,5.78
2023-11-30T07:39:17.840Z,5.75
2023-11-30T07:44:19.831Z,5.43
2023-11-30T07:49:21.699Z,5.47
2023-11-30T07:54:23.766Z,5.60
2023-11-30T07:59:25.636Z,5.50
2023-11-30T08:04:27.477Z,5.78
2023-11-30T08:09:29.970Z,5.97
2023-11-30T08:14:31.973Z,6.53
2023-11-30T08:19:37.031Z,5.50
2023-11-30T08:24:39.918Z,5.65
2023-11-30T08:29:42.783Z,6.25
2023-11-30T08:34:44.550Z,6.95
2023-11-30T08:39:47.276Z,7.07
2023-11-30T08:44:49.309Z,7.75
2023-11-30T08:49:51.181Z,7.30
2023-11-30T08:54:54.270Z,7.07
2023-11-30T08:59:59.015Z,5.88
2023-11-30T09:05:00.922Z,5.63
2023-11-30T09:10:03.385Z,5.32
2023-11-30T09:15:09.955Z,5.70
2023-11-30T09:20:12.785Z,5.65
2023-11-30T09:25:14.777Z,4.60
2023-11-30T09:30:16.924Z,5.78
2023-11-30T09:40:21.471Z,4.95
2023-11-30T09:45:25.290Z,5.00
2023-11-30T09:50:27.104Z,4.95
2023-11-30T09:55:29.695Z,5.18
2023-11-30T10:00:31.670Z,5.65
2023-11-30T10:05:33.881Z,5.20
2023-11-30T10:10:35.993Z,5.03
2023-11-30T10:15:37.778Z,4.60
2023-11-30T10:20:39.904Z,5.27
2023-11-30T10:25:42.362Z,5.37
2023-11-30T10:30:45.039Z,5.00
2023-11-30T10:35:50.474Z,5.50
2023-11-30T10:41:00.778Z,5.30
2023-11-30T10:46:08.273Z,5.13
2023-11-30T10:51:14.521Z,5.70
2023-11-30T10:56:18.726Z,5.70
2023-11-30T11:01:20.545Z,5.65
2023-11-30T11:06:26.646Z,6.33
2023-11-30T11:11:30.653Z,6.20
2023-11-30T11:16:42.548Z,5.45
2023-11-30T11:21:45.130Z,5.93
2023-11-30T11:26:49.102Z,6.38
2023-11-30T11:31:51.116Z,6.60
2023-11-30T11:36:52.855Z,7.40
2023-11-30T11:41:55.115Z,7.53
2023-11-30T11:46:56.906Z,9.75
2023-11-30T11:51:59.126Z,14.40
2023-11-30T11:57:00.890Z,11.50
2023-11-30T12:02:03.058Z,12.98
2023-11-30T12:07:16.472Z,13.10
2023-11-30T12:12:18.304Z,11.95
2023-11-30T12:17:20.255Z,11.50
2023-11-30T12:22:22.559Z,11.10
2023-11-30T12:27:24.479Z,12.23
2023-11-30T12:32:26.518Z,12.57
2023-11-30T12:37:28.282Z,11.13
2023-11-30T12:42:30.404Z,12.17
2023-11-30T12:47:33.045Z,11.23
2023-11-30T12:52:34.921Z,11.93
2023-11-30T12:57:39.767Z,11.43
2023-11-30T13:02:44.763Z,11.05
2023-11-30T13:07:47.637Z,10.40
2023-11-30T13:12:49.410Z,9.82
2023-11-30T13:17:51.213Z,11.40
2023-11-30T13:22:53.011Z,11.70
2023-11-30T13:27:54.844Z,10.70
2023-11-30T13:32:57.431Z,10.10
2023-11-30T13:37:59.368Z,10.25
2023-11-30T13:43:01.970Z,10.85
2023-11-30T13:48:03.944Z,9.77
2023-11-30T13:53:06.105Z,10.82
2023-11-30T13:58:10.882Z,10.73
2023-11-30T14:03:14.145Z,10.05
2023-11-30T14:08:17.019Z,12.63
2023-11-30T14:13:18.755Z,16.10
2023-11-30T14:18:20.743Z,14.23
2023-11-30T14:23:22.582Z,15.93
2023-11-30T14:28:26.035Z,16.92
2023-11-30T14:33:27.900Z,15.07
2023-11-30T14:38:29.711Z,12.93
2023-11-30T14:43:32.159Z,13.13
2023-11-30T14:48:34.036Z,12.23
2023-11-30T14:53:35.947Z,10.60
2023-11-30T14:58:37.785Z,10.93
2023-11-30T15:03:39.765Z,11.77
2023-11-30T15:08:41.758Z,14.07
2023-11-30T15:13:43.605Z,12.60
2023-11-30T15:18:45.376Z,10.87
2023-11-30T15:23:47.118Z,21.03
2023-11-30T15:28:48.955Z,26.20
2023-11-30T15:33:51.232Z,17.57
2023-11-30T15:38:53.177Z,11.15
2023-11-30T15:43:55.040Z,12.23
2023-11-30T15:48:56.906Z,12.63
2023-11-30T15:53:58.798Z,10.70
2023-11-30T15:59:01.037Z,12.32
2023-11-30T16:04:02.923Z,10.90
2023-11-30T16:09:05.528Z,11.15
2023-11-30T16:14:07.599Z,12.02
2023-11-30T16:24:12.081Z,13.48
2023-11-30T16:29:13.898Z,11.70
2023-11-30T16:34:17.103Z,12.25
2023-11-30T16:39:19.154Z,15.27
2023-11-30T16:44:21.381Z,14.95
2023-11-30T16:49:23.269Z,15.27
2023-11-30T16:54:25.192Z,14.10
2023-11-30T16:59:27.489Z,13.97
2023-11-30T17:04:29.249Z,13.00
2023-11-30T17:09:31.002Z,11.93
2023-11-30T17:14:32.874Z,11.43
2023-11-30T17:19:34.605Z,11.73
2023-11-30T17:24:36.388Z,12.07
2023-11-30T17:29:39.062Z,12.30
2023-11-30T17:34:41.181Z,12.27
2023-11-30T17:39:43.062Z,13.38
2023-11-30T17:44:44.801Z,12.60
2023-11-30T17:49:46.923Z,13.35
2023-11-30T17:54:50.304Z,13.60
2023-11-30T17:59:52.233Z,15.70
2023-11-30T18:04:53.996Z,15.57
2023-11-30T18:09:56.112Z,16.37
2023-11-30T18:14:58.088Z,16.05
2023-11-30T18:20:00.486Z,18.33
2023-11-30T18:25:02.633Z,14.65
2023-11-30T18:30:05.009Z,15.17
2023-11-30T18:35:07.570Z,15.75
2023-11-30T18:40:15.019Z,16.27
2023-11-30T18:45:17.097Z,15.35
2023-11-30T18:50:19.339Z,14.68
2023-11-30T18:55:21.123Z,15.27
2023-11-30T19:00:23.355Z,15.37
2023-11-30T19:05:25.765Z,15.95
2023-11-30T19:10:27.748Z,15.43
2023-11-30T19:15:31.448Z,14.47
2023-11-30T19:20:33.628Z,15.18
2023-11-30T19:25:35.488Z,15.73
2023-11-30T19:30:38.526Z,27.10
2023-11-30T19:35:40.291Z,18.53
2023-11-30T19:40:42.164Z,16.37
2023-11-30T19:45:44.280Z,15.80
2023-11-30T19:50:46.315Z,16.38
2023-11-30T19:55:48.221Z,15.20
2023-11-30T20:00:52.672Z,16.17
2023-11-30T20:05:54.476Z,15.60
2023-11-30T20:10:56.305Z,16.00
2023-11-30T20:15:58.651Z,16.40
2023-11-30T20:21:00.593Z,16.98
2023-11-30T20:26:02.714Z,18.73
2023-11-30T20:31:04.908Z,18.02
2023-11-30T20:36:06.907Z,17.48
2023-11-30T20:41:10.252Z,16.67
2023-11-30T20:46:13.906Z,16.63
2023-11-30T20:51:19.695Z,16.65
2023-11-30T20:56:21.697Z,17.73
2023-11-30T21:01:23.827Z,19.07
2023-11-30T21:06:27.538Z,17.48
2023-11-30T21:11:29.996Z,17.60
2023-11-30T21:16:31.926Z,17.45
2023-11-30T21:21:34.307Z,17.33
2023-11-30T21:26:36.025Z,16.60
2023-11-30T21:31:41.351Z,18.10
2023-11-30T21:36:43.788Z,18.85
2023-11-30T21:46:47.465Z,19.45
2023-11-30T21:51:49.387Z,18.67
2023-11-30T21:56:51.692Z,18.33
2023-11-30T22:01:53.698Z,19.80
2023-11-30T22:06:55.528Z,19.53
2023-11-30T22:11:58.554Z,17.70
2023-11-30T22:17:00.300Z,18.50
2023-11-30T22:22:02.330Z,20.23
2023-11-30T22:27:05.626Z,19.13
2023-11-30T22:32:08.466Z,17.35
2023-11-30T22:42:12.496Z,17.33
2023-11-30T22:47:15.411Z,18.93
2023-11-30T22:52:17.543Z,18.90
2023-11-30T22:57:19.911Z,19.20
2023-11-30T23:02:23.586Z,19.15
2023-11-30T23:07:25.468Z,18.48
2023-11-30T23:12:27.803Z,18.10
2023-11-30T23:17:30.199Z,18.83
2023-11-30T23:22:32.059Z,17.48
2023-11-30T23:27:34.472Z,18.20
2023-11-30T23:32:36.371Z,16.30
2023-11-30T23:37:38.221Z,17.13
2023-11-30T23:42:40.543Z,19.55
2023-11-30T23:47:43.225Z,22.13
2023-11-30T23:52:45.406Z,20.42
2023-11-30T23:57:47.740Z,19.90
